Weather observations for the past three days for
Sheldon
Imperial (Metric)
Date Time (cdt) Wind (mph) Vis. (mi.) Weather Sky Cond. Temperature (ºF) Relative Humidity Wind Chill (°F) Heat Index (°F) Pressure Precipitation (in)
Air Dwpt 6 hour altimeter (in) sea level (mb) 1 hr 3 hr 6 hr
Max. Min.
09 17:15 N 16 G 25 10.00 Fair CLR 62.6 24.8 24% 29.88 0.0
09 16:55 N 20 G 28 10.00 Fair CLR 64.4 24.8 22% 29.87 0.0
09 16:35 N 17 G 26 10.00 Fair CLR 62.6 24.8 24% 29.86 0.0
09 16:15 N 21 G 26 10.00 Fair and Breezy CLR 64.4 26.6 24% 29.86 0.0
09 15:55 N 17 G 24 10.00 Fair CLR 64.4 26.6 24% 29.86 0.0
09 15:35 N 18 G 31 10.00 Fair CLR 64.4 28.4 26% 29.86 0.0
09 15:15 N 18 G 25 10.00 Fair CLR 64.4 28.4 26% 29.85 0.0
09 14:55 N 17 G 23 10.00 Fair CLR 64.4 30.2 28% 29.84 0.0
09 14:35 N 18 G 30 10.00 Fair CLR 64.4 28.4 26% 29.84 0.0
09 14:15 N 10 G 25 10.00 Fair CLR 62.6 28.4 27% 29.83 0.0
09 13:55 N 16 G 26 10.00 Fair CLR 62.6 30.2 30% 29.83 0.0
09 13:35 NW 17 G 26 10.00 Fair CLR 62.6 30.2 30% 29.83 0.0
09 13:15 N 16 G 25 10.00 Fair CLR 60.8 30.2 31% 29.83 0.0
09 12:55 N 14 G 26 10.00 Fair CLR 62.6 32 32% 29.83 0.0
09 12:35 N 16 G 23 10.00 Fair CLR 62.6 33.8 34% 29.83 0.0
09 12:15 N 18 G 25 10.00 Fair CLR 60.8 35.6 39% 29.83 0.0
09 11:55 N 20 G 26 10.00 Fair CLR 60.8 37.4 42% 29.82 0.0
09 11:35 N 10 G 23 10.00 A Few Clouds FEW090 59 39.2 48% 29.82 0.0
09 11:15 N 16 G 22 10.00 Partly Cloudy SCT090 59 39.2 48% 29.81 0.0
09 10:55 N 13 10.00 Fair CLR 57.2 42.8 59% 29.81 0.0
09 10:35 N 17 G 23 10.00 Fair CLR 55.4 42.8 63% 29.79 0.0
09 10:15 N 15 10.00 Fair CLR 55.4 42.8 63% 29.78 0.0
09 09:55 N 12 G 18 10.00 Partly Cloudy SCT070 55.4 42.8 63% 29.78 0.0
09 09:35 N 14 10.00 Mostly Cloudy BKN070 55.4 41 59% 29.78 0.0
09 09:15 N 17 10.00 Fair CLR 55.4 41 59% 29.77 0.0
09 08:55 Vrbl 6 10.00 Fair CLR 55.4 39.2 55% 29.76 0.0
09 08:35 Calm 10.00 Fair CLR 53.6 37.4 54% 29.74 0.0
09 08:15 Calm 10.00 A Few Clouds FEW110 53.6 37.4 54% 29.74 0.0
09 07:55 S 5 10.00 A Few Clouds FEW110 51.8 35.6 54% 29.74 0.0
09 07:35 Calm 10.00 A Few Clouds FEW110 51.8 33.8 50% 29.75 0.0
09 07:15 N 3 10.00 A Few Clouds FEW110 51.8 33.8 50% 29.75 0.0
09 06:55 N 8 10.00 Fair CLR 51.8 32 47% 29.75 0.0
09 06:35 NW 10 10.00 Fair CLR 50 30.2 47% 46 29.73 0.0
09 06:15 NW 10 G 16 10.00 NULL NULL 50 30.2 47% 46 29.72 0.0
09 05:55 NW 14 G 25 0.00 NULL NULL 51.8 30.2 44% 29.71 0.0
09 05:35 NW 21 G 32 10.00 Breezy NULL 46.4 28.4 50% 39 29.7 0.0
09 05:15 SW 12 10.00 NULL NULL 46.4 28.4 50% 42 29.65 0.0
09 04:55 SW 9 10.00 NULL NULL 46.4 28.4 50% 42 29.65 0.0
09 04:35 SW 10 10.00 NULL NULL 46.4 30.2 53% 42 29.65 0.0
09 04:15 SW 8 10.00 NULL NULL 46.4 30.2 53% 43 29.65 0.0
09 03:55 SW 8 10.00 NULL NULL 44.6 30.2 57% 41 29.65 0.0
09 03:35 SW 9 10.00 NULL NULL 46.4 28.4 50% 42 29.65 0.0
09 03:15 SW 7 10.00 NULL NULL 46.4 30.2 53% 43 29.65 0.0
09 02:55 SW 8 10.00 NULL NULL 44.6 28.4 53% 41 29.65 0.0
09 02:35 SW 6 10.00 NULL NULL 42.8 30.2 61% 40 29.66 0.0
09 02:15 SW 6 10.00 NULL NULL 42.8 30.2 61% 40 29.67 0.0
09 01:55 SW 3 10.00 NULL NULL 44.6 30.2 57% 29.68 0.0
09 01:35 SW 5 10.00 NULL NULL 44.6 28.4 53% 43 29.69 0.0
09 01:15 SW 6 10.00 Fair CLR 44.6 28.4 53% 42 29.7 0.0
09 00:55 SW 6 10.00 NULL NULL 46.4 28.4 50% 44 29.7 0.0
09 00:35 SW 3 10.00 NULL NULL 44.6 28.4 53% 29.7 0.0
09 00:15 Calm 10.00 NULL NULL 48.2 28.4 46% 29.7 0.0
08 23:55 NW 3 10.00 Fair CLR 46.4 26.6 46% 29.71 0.0
08 23:35 NW 6 10.00 NULL NULL 48.2 28.4 46% 46 29.71 0.0
08 23:15 NW 6 10.00 NULL NULL 51.8 26.6 38% 29.71 0.0
08 22:55 NW 7 10.00 NULL NULL 51.8 28.4 41% 29.71 0.0
08 22:35 NW 7 10.00 NULL NULL 51.8 28.4 41% 29.71 0.0
08 22:15 N 7 10.00 NULL NULL 55.4 28.4 36% 29.7 0.0
08 21:55 N 8 10.00 NULL NULL 57.2 28.4 33% 29.69 0.0
08 21:35 N 7 10.00 NULL NULL 59 30.2 34% 29.69 0.0
08 21:15 N 9 10.00 NULL NULL 62.6 30.2 30% 29.68 0.0
08 20:55 N 12 10.00 NULL NULL 64.4 32 30% 29.67 0.0
08 20:35 N 12 10.00 Fair CLR 64.4 33.8 32% 29.65 0.0
08 20:15 NW 10 10.00 Fair CLR 68 33.8 28% 29.64 0.0
08 19:55 NW 12 10.00 Fair CLR 69.8 33.8 27% 29.63 0.0
08 19:35 NW 17 10.00 A Few Clouds FEW100 71.6 33.8 25% 29.63 0.0
08 19:15 NW 23 G 36 8.00 Light Rain and Breezy BKN100 69.8 37.4 31% 29.64 0.0
08 18:55 W 16 G 22 10.00 Mostly Cloudy BKN100 BKN120 73.4 30.2 20% 29.62 0.0
08 18:35 NW 16 G 24 10.00 Partly Cloudy SCT110 75.2 28.4 18% 76 29.62 0.0
08 17:55 NW 14 G 22 10.00 Fair CLR 77 28.4 17% 77 29.62 0.0
08 17:35 W 16 G 29 10.00 A Few Clouds FEW110 77 26.6 15% 77 29.62 0.0
08 17:15 W 18 G 25 10.00 A Few Clouds FEW110 77 26.6 15% 77 29.63 0.0
08 16:55 W 17 G 23 10.00 A Few Clouds FEW110 77 26.6 15% 77 29.62 0.0
08 16:35 NW 21 10.00 Partly Cloudy and Breezy SCT110 77 28.4 17% 77 29.63 0.0
08 16:15 NW 16 10.00 Fair CLR 75.2 28.4 18% 76 29.63 0.0
08 15:55 W 15 G 25 10.00 A Few Clouds FEW100 77 30.2 18% 77 29.63 0.0
08 15:35 W 17 G 24 10.00 A Few Clouds FEW100 77 28.4 17% 77 29.64 0.0
08 15:15 W 16 G 26 10.00 A Few Clouds FEW100 75.2 28.4 18% 76 29.65 0.0
08 14:35 W 15 G 25 10.00 Fair CLR 75.2 30.2 19% 76 29.67 0.0
08 14:15 W 13 G 21 10.00 Fair CLR 75.2 28.4 18% 76 29.67 0.0
08 13:55 W 13 G 23 10.00 A Few Clouds FEW100 73.4 28.4 19% 29.68 0.0
08 13:35 W 10 G 26 10.00 Fair CLR 75.2 28.4 18% 76 29.69 0.0
08 13:15 SW 15 G 22 10.00 Fair CLR 73.4 28.4 19% 29.69 0.0
08 12:35 SW 10 G 18 10.00 Fair CLR 71.6 26.6 19% 29.72 0.0
08 12:15 W 12 G 18 10.00 Fair CLR 71.6 24.8 17% 29.73 0.0
08 11:55 W 10 10.00 Fair CLR 69.8 24.8 18% 29.74 0.0
08 11:35 W 12 G 18 10.00 Fair CLR 69.8 23 17% 29.74 0.0
08 11:15 W 10 G 17 10.00 Fair CLR 68 23 18% 29.74 0.0
08 10:55 W 9 G 16 10.00 Fair CLR 68 23 18% 29.75 0.0
08 10:35 W 8 10.00 Fair CLR 68 23 18% 29.75 0.0
08 10:15 SW 13 10.00 Fair CLR 66.2 23 19% 29.76 0.0
08 09:55 SW 13 10.00 Fair CLR 64.4 24.8 22% 29.76 0.0
08 09:35 SW 12 10.00 A Few Clouds FEW120 64.4 24.8 22% 29.77 0.0
08 09:15 SW 6 10.00 Partly Cloudy SCT120 59 28.4 31% 29.78 0.0
08 08:35 SW 3 10.00 A Few Clouds FEW090 FEW110 53.6 26.6 35% 29.79 0.0
08 08:15 Calm 9.00 Partly Cloudy SCT100 SCT120 50 28.4 43% 29.79 0.0
08 07:55 Calm 9.00 Partly Cloudy SCT110 48.2 28.4 46% 29.79 0.0
08 07:35 Calm 9.00 A Few Clouds FEW110 42.8 30.2 61% 29.78 0.0
08 07:15 Calm 10.00 Fair CLR 41 28.4 61% 29.78 0.0
08 06:55 Calm 10.00 Fair CLR 37.4 26.6 65% 29.78 0.0
08 06:35 Calm 10.00 Fair CLR 35.6 24.8 65% 29.78 0.0
08 06:15 SE 3 9.00 Fair CLR 35.6 24.8 65% 29.78 0.0
08 05:55 Calm 5.00 Haze NULL 37.4 24.8 60% 29.78 0.0
08 05:35 S 5 8.00 Fair CLR 37.4 24.8 60% 34 29.78 0.0
08 05:15 SE 3 5.00 A Few Clouds with Haze FEW120 37.4 24.8 60% 29.78 0.0
08 04:55 Calm 7.00 Partly Cloudy SCT120 37.4 24.8 60% 29.78 0.0
08 04:35 SE 3 10.00 NULL NULL 37.4 24.8 60% 29.78 0.0
08 04:15 S 5 10.00 NULL NULL 37.4 26.6 65% 34 29.78 0.0
08 03:55 S 5 10.00 NULL NULL 35.6 24.8 65% 32 29.78 0.0
08 03:35 SE 3 10.00 NULL NULL 37.4 23 56% 29.79 0.0
08 03:15 SE 3 10.00 NULL NULL 39.2 24.8 56% 29.79 0.0
08 02:55 Calm 10.00 NULL NULL 37.4 24.8 60% 29.79 0.0
08 02:35 Calm 10.00 Fair CLR 39.2 24.8 56% 29.8 0.0
08 02:15 Calm 10.00 NULL NULL 39.2 23 52% 29.8 0.0
08 01:55 Calm 10.00 NULL NULL 41 23 49% 29.8 0.0
08 01:35 Calm 10.00 NULL NULL 41 23 49% 29.81 0.0
08 01:15 Calm 10.00 NULL NULL 41 24.8 53% 29.81 0.0
08 00:55 Calm 10.00 NULL NULL 41 23 49% 29.81 0.0
08 00:35 Calm 10.00 Fair CLR 42.8 23 46% 29.81 0.0
08 00:15 SE 3 10.00 NULL NULL 42.8 24.8 49% 29.81 0.0
07 23:55 Calm 6.00 Haze NULL 42.8 24.8 49% 29.81 0.0
07 23:35 Calm 9.00 Fair CLR 42.8 24.8 49% 29.81 0.0
07 23:15 Calm 10.00 NULL NULL 42.8 24.8 49% 29.81 0.0
07 22:55 Calm 10.00 NULL NULL 46.4 26.6 46% 29.82 0.0
07 22:35 Calm 10.00 NULL NULL 48.2 28.4 46% 29.82 0.0
07 22:15 Calm 8.00 Fair CLR 48.2 23 37% 29.81 0.0
07 21:55 Calm 8.00 NULL NULL 50 23 35% 29.81 0.0
07 21:35 Calm 8.00 NULL NULL 50 23 35% 29.81 0.0
07 21:15 Calm 10.00 NULL NULL 51.8 21.2 30% 29.8 0.0
07 20:55 W 3 10.00 Fair CLR 53.6 21.2 28% 29.8 0.0
07 20:35 Calm 10.00 Fair CLR 57.2 21.2 25% 29.79 0.0
07 20:15 Calm 9.00 Fair CLR 59 21.2 23% 29.79 0.0
07 19:55 NW 6 10.00 Fair CLR 60.8 21.2 22% 29.78 0.0
07 19:35 NW 8 10.00 Fair CLR 62.6 19.4 19% 29.78 0.0
07 19:15 NW 6 10.00 Fair CLR 62.6 19.4 19% 29.78 0.0
07 18:55 W 6 10.00 Fair CLR 64.4 19.4 18% 29.78 0.0
07 18:35 NW 10 G 16 10.00 Fair CLR 64.4 19.4 18% 29.79 0.0
07 18:15 NW 10 10.00 Fair CLR 64.4 19.4 18% 29.79 0.0
07 17:55 NW 3 10.00 Fair CLR 64.4 17.6 16% 29.79 0.0
07 17:35 NW 14 10.00 Fair CLR 64.4 19.4 18% 29.79 0.0
07 17:15 NW 7 G 15 10.00 Fair CLR 64.4 19.4 18% 29.79 0.0
07 16:55 N 12 10.00 Fair CLR 64.4 19.4 18% 29.79 0.0
07 16:35 NW 7 G 17 10.00 Fair CLR 64.4 19.4 18% 29.8 0.0
07 16:15 NW 8 10.00 Fair CLR 62.6 19.4 19% 29.8 0.0
07 15:55 SW 7 G 16 10.00 Fair CLR 62.6 19.4 19% 29.8 0.0
07 15:35 W 12 10.00 Fair CLR 64.4 19.4 18% 29.81 0.0
07 15:15 Calm 10.00 Fair CLR 62.6 21.2 20% 29.81 0.0
07 14:55 Vrbl 6 G 13 10.00 Fair CLR 62.6 19.4 19% 29.82 0.0
07 14:35 N 10 G 16 10.00 Fair CLR 60.8 21.2 22% 29.82 0.0
07 14:15 NW 12 10.00 Fair CLR 62.6 23 22% 29.83 0.0
07 13:55 NW 9 10.00 Fair CLR 60.8 23 23% 29.83 0.0
07 13:35 NW 13 10.00 Fair CLR 60.8 23 23% 29.83 0.0
07 13:15 Vrbl 5 10.00 Fair CLR 59 24.8 27% 29.83 0.0
07 12:55 Vrbl 7 10.00 Fair CLR 59 23 25% 29.84 0.0
07 12:35 S 5 10.00 Fair CLR 57.2 24.8 29% 29.84 0.0
07 12:15 Calm 10.00 Fair CLR 57.2 26.6 31% 29.85 0.0
07 11:55 Calm 10.00 Fair CLR 57.2 26.6 31% 29.85 0.0
07 11:35 Vrbl 7 10.00 Fair CLR 57.2 26.6 31% 29.85 0.0
07 11:15 NE 8 G 14 10.00 Fair CLR 55.4 26.6 33% 29.85 0.0
07 10:55 E 9 G 15 10.00 Fair CLR 55.4 26.6 33% 29.85 0.0
07 10:35 E 8 G 16 10.00 Fair CLR 53.6 26.6 35% 29.85 0.0
07 10:15 E 9 10.00 Fair CLR 53.6 26.6 35% 29.85 0.0
07 09:55 E 12 9.00 Fair CLR 51.8 26.6 38% 29.85 0.0
07 09:35 E 12 10.00 Fair CLR 50 28.4 43% 46 29.85 0.0
07 09:15 E 13 G 18 10.00 Fair CLR 48.2 26.6 43% 43 29.85 0.0
07 08:55 E 16 10.00 Fair CLR 48.2 26.6 43% 43 29.85 0.0
07 08:35 E 14 G 21 10.00 Fair CLR 46.4 26.6 46% 41 29.85 0.0
07 08:15 E 13 10.00 Fair CLR 44.6 26.6 49% 39 29.85 0.0
07 07:55 E 15 10.00 Fair CLR 42.8 26.6 53% 36 29.85 0.0
07 07:35 NE 10 10.00 Fair CLR 41 26.6 57% 35 29.85 0.0
07 07:15 E 10 10.00 Fair CLR 39.2 26.6 61% 33 29.84 0.0
07 06:55 NE 13 10.00 Fair CLR 35.6 26.6 70% 28 29.84 0.0
07 06:35 NE 13 10.00 Fair CLR 35.6 26.6 70% 28 29.84 0.0
07 06:15 NE 10 10.00 Fair CLR 35.6 24.8 65% 29 29.84 0.0
07 05:55 NE 8 G 16 10.00 NULL NULL 35.6 24.8 65% 30 29.84 0.0
07 05:35 Calm 10.00 NULL NULL 32 24.8 75% 29.84 0.0
07 05:15 E 5 10.00 Overcast BKN080 OVC095 33.8 24.8 70% 30 29.84 0.0
07 04:55 E 3 10.00 NULL NULL 33.8 24.8 70% 29.84 0.0
07 04:35 SE 7 10.00 Overcast SCT075 OVC100 35.6 24.8 65% 31 29.84 0.0
07 04:15 E 9 10.00 Overcast BKN100 OVC120 35.6 24.8 65% 29 29.85 0.0
07 03:55 E 9 10.00 NULL NULL 35.6 24.8 65% 29 29.85 0.0
07 03:35 E 9 10.00 NULL NULL 37.4 24.8 60% 31 29.86 0.0
07 03:15 SE 3 10.00 NULL NULL 33.8 24.8 70% 29.87 0.0
07 02:55 E 6 10.00 NULL NULL 37.4 24.8 60% 33 29.87 0.0
07 02:15 E 8 10.00 NULL NULL 39.2 24.8 56% 34 29.88 0.0
07 01:55 E 9 10.00 NULL NULL 41 24.8 53% 36 29.89 0.0
07 01:35 E 7 10.00 NULL NULL 42.8 26.6 53% 39 29.9 0.0
07 01:15 NE 6 10.00 Overcast FEW075 OVC100 41 24.8 53% 38 29.91 0.0
07 00:55 SE 3 10.00 Overcast FEW075 OVC100 41 24.8 53% 29.91 0.0
07 00:35 SE 6 10.00 NULL NULL 42.8 24.8 49% 40 29.91 0.0
07 00:15 NE 6 10.00 NULL NULL 44.6 24.8 46% 42 29.91 0.0
06 23:55 Calm 10.00 NULL NULL 44.6 24.8 46% 29.91 0.0
06 23:35 S 6 0.00 NULL NULL 44.6 24.8 46% 42 29.91 0.0
06 23:15 S 6 10.00 Overcast OVC090 44.6 24.8 46% 42 29.92 0.0
06 22:35 S 3 10.00 Overcast OVC090 44.6 23 43% 29.93 0.0
06 22:15 Calm 10.00 NULL NULL 44.6 23 43% 29.94 0.0
06 21:55 Calm 10.00 NULL NULL 42.8 23 46% 29.94 0.0
06 21:35 Calm 10.00 Overcast FEW070 BKN080 OVC090 46.4 21.2 37% 29.94 0.0
06 21:15 Calm 10.00 Overcast SCT075 OVC090 48.2 21.2 34% 29.94 0.0
06 20:55 Calm 10.00 Overcast FEW075 OVC090 50 21.2 32% 29.94 0.0
06 20:35 W 3 10.00 Overcast BKN080 OVC090 51.8 19.4 28% 29.94 0.0
06 20:15 NW 6 10.00 Overcast OVC090 51.8 19.4 28% 29.94 0.0
06 19:55 NW 7 10.00 Overcast OVC090 51.8 19.4 28% 29.94 0.0
06 19:35 NW 13 10.00 Overcast OVC085 53.6 19.4 26% 29.94 0.0
06 19:15 NW 12 10.00 Overcast OVC085 55.4 19.4 24% 29.94 0.0
06 18:55 W 15 G 22 10.00 Mostly Cloudy BKN085 55.4 19.4 24% 29.94 0.0
06 18:35 W 10 G 21 10.00 Mostly Cloudy BKN085 53.6 19.4 26% 29.95 0.0
06 18:15 NW 12 G 18 10.00 Mostly Cloudy BKN080 55.4 21.2 26% 29.95 0.0
06 17:55 NW 15 G 22 10.00 Mostly Cloudy SCT075 BKN090 53.6 21.2 28% 29.95 0.0
Date Time (cdt) Wind (mph) Vis. (mi.) Weather Sky Cond. Air Dwpt Max. Min. Relative Humidity Wind Chill (°F) Heat Index (°F) altimeter (in) sea level (mb) 1 hr 3 hr 6 hr
6 hour
Temperature (ºF) Pressure Precipitation (in)